Bayfield, CO (81122)

6:17 AM MST on December 06, 2016 (GMT -0700)
Bayfield Weather | | Change Station

Elev 7047 ft 37.25 °N, 107.60 °W | Updated 1 second ago

Clear
Clear
22.6 °F
Feels Like 23 °F
N
1.4
Wind Variable Wind from NNW
Gusts 3.5 mph

Today
High -- | Low -- °F
--% Chance of Precip.
Yesterday
High -- | Low -- °F
Precip. -- in
Pressure 29.96 in
Visibility 10.0 miles
Clouds Clear
Windchill 23 °F
Dew Point 16 °F
Humidity 75%
Rainfall 0.00 in
Snow Depth Not available.
7:10 AM 4:52 PM
Waxing Crescent, 41% visible
METAR KDRO 061253Z AUTO 08003KT 10SM CLR M07/M11 A2988 RMK AO2 SLP145 T10721106
Pressure 29.96 in
Visibility 10.0 miles
Clouds Clear
Windchill 23 °F
Dew Point 16 °F
Humidity 75%
Rainfall 0.00 in
Snow Depth Not available.
7:10 AM 4:52 PM
Waxing Crescent, 41% visible
METAR KDRO 061253Z AUTO 08003KT 10SM CLR M07/M11 A2988 RMK AO2 SLP145 T10721106

10-Day Weather Forecast

Almanac

Astronomy

Dec. 06, 2016 Rise Set
Actual Time
Civil Twilight
Nautical Twilight
Astronomical Twilight
Moon
Length of Visible Light
Length of Day
Tomorrow will be .
, % of the Moon is Illuminated

Today's Extremes

State Highs State Lows

Community

WunderPhotos

Upload Photos

1,955,938 photos uploaded!

WunderBlog® & News

Nearby

Air Quality

  Air Quality AQ Index Pollutant
Not available.

Snow Depth

Station Depth Elevation

Earthquake Activity

City Distance Mag. Time & Date
Minimum magnitude displayed is 2.5.

Coastal Water Temperatures

Place Temperature

Stations

Nearby Weather Stations

Station Location Temp. Windchill Dew Point Humidity Wind Precip. Elev Updated Type
                   

Watches & Warnings

There are currently no watches in effect.